RKSI/ICN METAR and TAF weather

Enter ICAO airport designator
Station Type Date Time Source
RKSI METAR 2022/01/27 23:30 UTC NOAA

RKSI 272330Z 34005KT CAVOK M04/M12 Q1027 NOSIG


Station Type Date Time Source
RKSI Decoded METAR 2022/01/27 23:30 UTC NOAA

Incheon International Airport, Korea, South (RKSI) 37-28N 126-27E
Jan 27, 2022 - 06:30 PM EST / 2022.01.27 2330 UTC
Wind: from the NNW (340 degrees) at 6 MPH (5 KT):0
Visibility: greater than 7 mile(s):0
Temperature: 24 F (-4 C)
Windchill: 17 F (-8 C):1
Dew Point: 10 F (-12 C)
Relative Humidity: 53%
Pressure (altimeter): 30.33 in. Hg (1027 hPa)
ob: RKSI 272330Z 34005KT CAVOK M04/M12 Q1027 NOSIG
cycle: 23

Station Type Date Time Source
RKSI TAF 2022/01/27 18:09 UTC NOAA

TAF RKSI 271700Z 2718/2824 32010KT CAVOK TNM06/2722Z TX01/2806Z TNM06/2822Z

Example: see airport list